Time;durP1;ratioP1;P1;durP2;ratioP2;P2;SDS_P1;SDS_P2;PMS_P1;PMS_P2;Temp;Humidity;BMP_temperature;BMP_pressure;BME280_temperature;BME280_humidity;BME280_pressure;Samples;Min_cycle;Max_cycle;Signal;HPM_P1;HPM_P2
2022/09/15 00:00:32;;;;;;;3.26;2.99;;;;;;;15.10;75.85;100071.21;455493;116;922502;-79
2022/09/15 00:01:35;;;;;;;3.50;3.26;;;;;;;15.10;75.90;100073.95;455548;116;922534;-77
2022/09/15 00:02:38;;;;;;;3.37;3.16;;;;;;;15.10;75.79;100064.89;455539;116;922510;-78
2022/09/15 00:03:41;;;;;;;3.46;3.11;;;;;;;15.11;75.80;100064.61;455529;116;923277;-78
2022/09/15 00:04:44;;;;;;;3.50;3.22;;;;;;;15.11;75.77;100075.59;455531;116;922799;-78
2022/09/15 00:05:48;;;;;;;3.83;3.56;;;;;;;15.10;75.74;100062.98;455619;116;922565;-76
2022/09/15 00:06:51;;;;;;;3.56;3.29;;;;;;;15.10;75.71;100067.64;455543;116;922666;-76
2022/09/15 00:07:55;;;;;;;7.54;3.39;;;;;;;15.09;75.71;100069.55;455386;116;930612;-75
2022/09/15 00:08:58;;;;;;;3.19;2.98;;;;;;;15.09;75.71;100066.80;455520;116;930502;-76
2022/09/15 00:10:02;;;;;;;3.11;2.85;;;;;;;15.07;75.66;100066.22;455594;116;922507;-75
2022/09/15 00:11:11;;;;;;;4.95;3.30;;;;;;;15.06;75.63;100064.55;455473;116;922579;-77
2022/09/15 00:12:14;;;;;;;3.30;3.00;;;;;;;15.06;75.73;100069.21;455095;116;922514;-75
2022/09/15 00:13:18;;;;;;;3.38;2.94;;;;;;;15.03;75.72;100071.41;455579;116;922651;-76
2022/09/15 00:14:21;;;;;;;3.56;3.31;;;;;;;15.02;75.62;100066.99;455474;116;922802;-76
2022/09/15 00:15:24;;;;;;;3.04;2.84;;;;;;;15.00;75.62;100071.90;455544;116;922985;-75
2022/09/15 00:16:30;;;;;;;3.79;3.24;;;;;;;15.00;75.63;100079.30;455058;116;922645;-76
2022/09/15 00:17:33;;;;;;;3.33;3.09;;;;;;;14.98;75.67;100070.52;454883;116;930715;-75
2022/09/15 00:18:37;;;;;;;3.42;3.22;;;;;;;14.95;75.59;100062.77;455143;116;923072;-75
2022/09/15 00:19:41;;;;;;;3.29;3.07;;;;;;;14.93;75.59;100073.20;455015;116;922496;-76
2022/09/15 00:20:45;;;;;;;3.11;2.92;;;;;;;14.92;75.59;100066.05;455181;116;923052;-76
2022/09/15 00:21:48;;;;;;;2.95;2.74;;;;;;;14.91;75.68;100069.87;455147;116;922549;-75
2022/09/15 00:22:51;;;;;;;4.21;3.02;;;;;;;14.89;75.65;100070.11;455170;116;922919;-75
2022/09/15 00:23:54;;;;;;;3.47;2.99;;;;;;;14.88;75.65;100070.39;455205;116;922909;-76
2022/09/15 00:24:57;;;;;;;2.92;2.71;;;;;;;14.88;75.65;100075.88;455237;116;922627;-76
2022/09/15 00:26:00;;;;;;;3.96;3.42;;;;;;;14.86;75.73;100073.38;455214;116;923065;-76
2022/09/15 00:27:03;;;;;;;3.66;3.34;;;;;;;14.85;75.65;100070.89;455145;114;922503;-77
2022/09/15 00:28:07;;;;;;;3.19;2.97;;;;;;;14.85;75.71;100077.20;455158;116;922565;-77
2022/09/15 00:29:10;;;;;;;3.77;3.47;;;;;;;14.84;75.74;100075.55;455173;116;922820;-74
2022/09/15 00:30:14;;;;;;;3.26;3.03;;;;;;;14.84;75.75;100069.22;454743;116;922496;-76
2022/09/15 00:31:20;;;;;;;3.75;3.42;;;;;;;14.84;75.74;100078.28;455019;116;922888;-76
2022/09/15 00:32:23;;;;;;;3.36;3.06;;;;;;;14.84;75.74;100077.45;455374;114;923084;-76
2022/09/15 00:33:26;;;;;;;3.19;2.97;;;;;;;14.83;75.79;100073.08;455580;116;922471;-76
2022/09/15 00:34:29;;;;;;;3.91;3.59;;;;;;;14.83;75.90;100075.82;463193;114;922863;-76
2022/09/15 00:35:38;;;;;;;3.10;2.90;;;;;;;14.82;75.83;100074.98;463681;114;922523;-76
2022/09/15 00:36:42;;;;;;;3.35;2.95;;;;;;;14.82;75.78;100072.24;463212;114;923047;-76
2022/09/15 00:37:45;;;;;;;4.31;3.14;;;;;;;14.82;75.85;100079.64;463660;114;922438;-76
2022/09/15 00:38:48;;;;;;;3.22;2.96;;;;;;;14.81;75.76;100077.98;463698;114;922804;-76
2022/09/15 00:39:52;;;;;;;3.09;2.89;;;;;;;14.82;75.78;100079.64;463631;114;922896;-76
2022/09/15 00:40:56;;;;;;;4.61;2.98;;;;;;;14.79;75.76;100072.73;446879;114;922637;-76
2022/09/15 00:41:59;;;;;;;3.11;2.91;;;;;;;14.80;75.73;100071.66;447427;118;922562;-76
2022/09/15 00:43:04;;;;;;;2.91;2.71;;;;;;;14.78;75.80;100068.32;445315;117;923023;-76
2022/09/15 00:44:23;;;;;;;2.96;2.72;;;;;;;14.80;75.85;100073.56;445188;119;922960;-76
2022/09/15 00:45:26;;;;;;;3.58;3.08;;;;;;;14.79;75.89;100072.73;445152;119;922629;-76
2022/09/15 00:46:36;;;;;;;2.88;2.73;;;;;;;14.79;75.83;100064.50;445283;119;922597;-76
2022/09/15 00:47:39;;;;;;;3.51;3.26;;;;;;;14.80;75.87;100068.91;445000;117;930505;-76
2022/09/15 00:49:06;;;;;;;3.97;3.39;;;;;;;14.80;75.91;100066.16;445328;119;922560;-76
2022/09/15 00:50:13;;;;;;;4.73;3.44;;;;;;;14.81;76.02;100075.23;445165;119;922517;-76
2022/09/15 00:51:19;;;;;;;3.61;2.82;;;;;;;14.80;75.91;100079.89;445172;119;922681;-76
2022/09/15 00:52:31;;;;;;;3.28;2.94;;;;;;;14.79;75.94;100071.91;445139;117;922555;-75
2022/09/15 00:53:35;;;;;;;3.75;3.14;;;;;;;14.78;75.95;100076.56;438566;119;923076;-76
2022/09/15 00:54:43;;;;;;;2.89;2.42;;;;;;;14.78;75.98;100076.56;445223;119;922503;-75
2022/09/15 00:55:48;;;;;;;2.86;2.67;;;;;;;14.78;76.00;100062.84;445205;119;922530;-76
2022/09/15 00:56:55;;;;;;;3.11;2.80;;;;;;;14.78;76.04;100062.00;445188;119;922595;-76
2022/09/15 00:58:01;;;;;;;3.32;3.09;;;;;;;14.78;76.06;100062.00;445142;117;922556;-75
2022/09/15 00:59:08;;;;;;;3.46;2.62;;;;;;;14.79;76.05;100067.25;445159;119;922652;-76
2022/09/15 01:00:15;;;;;;;2.84;2.64;;;;;;;14.79;76.06;100067.25;445215;119;922565;-76
2022/09/15 01:01:18;;;;;;;2.92;2.63;;;;;;;14.79;76.14;100064.50;445129;119;922984;-75
2022/09/15 01:02:29;;;;;;;2.47;2.33;;;;;;;14.78;76.12;100071.06;445369;119;922542;-76
2022/09/15 01:03:34;;;;;;;2.73;2.41;;;;;;;14.78;76.12;100064.75;445236;119;923135;-76
2022/09/15 01:04:37;;;;;;;2.87;2.67;;;;;;;14.79;76.18;100063.67;445269;119;922602;-76
2022/09/15 01:05:43;;;;;;;2.82;2.61;;;;;;;14.79;76.25;100060.92;445379;119;922520;-76
2022/09/15 01:06:50;;;;;;;3.16;2.87;;;;;;;14.79;76.25;100058.18;445161;119;922573;-76
2022/09/15 01:08:03;;;;;;;3.28;2.43;;;;;;;14.80;76.28;100059.84;445108;119;922545;-76
2022/09/15 01:09:16;;;;;;;2.96;2.75;;;;;;;14.81;76.26;100054.11;444453;119;922513;-74
2022/09/15 01:10:31;;;;;;;2.60;2.42;;;;;;;14.79;76.34;100061.75;445115;119;923029;-74
2022/09/15 01:11:35;;;;;;;2.52;2.32;;;;;;;14.81;76.38;100056.02;444442;119;922561;-77
2022/09/15 01:12:39;;;;;;;2.98;2.57;;;;;;;14.79;76.44;100056.27;445262;119;922478;-75
2022/09/15 01:13:43;;;;;;;3.24;2.68;;;;;;;14.79;76.47;100056.27;445174;119;923302;-75
2022/09/15 01:14:46;;;;;;;2.90;2.64;;;;;;;14.79;76.50;100061.75;445228;119;930502;-75
2022/09/15 01:16:11;;;;;;;3.22;2.33;;;;;;;14.79;76.54;100060.92;440563;119;930343;-75
2022/09/15 01:17:42;;;;;;;3.15;2.75;;;;;;;14.79;76.51;100059.02;437396;121;923123;-75
2022/09/15 01:18:46;;;;;;;;;;;;;;;14.79;76.56;100059.02;418123;121;923103;-76
2022/09/15 01:20:08;;;;;;;2.58;2.38;;;;;;;14.77;76.62;100061.20;437823;119;922552;-76
2022/09/15 01:21:32;;;;;;;3.12;2.44;;;;;;;14.75;76.73;100055.13;427357;121;922768;-76
2022/09/15 01:23:13;;;;;;;2.40;2.26;;;;;;;14.72;76.83;100054.81;437420;121;922590;-76
2022/09/15 01:24:43;;;;;;;2.47;2.28;;;;;;;14.71;76.93;100053.16;438117;119;922550;-74
2022/09/15 01:26:09;;;;;;;2.35;2.23;;;;;;;14.68;77.07;100064.62;411191;129;923185;-76
2022/09/15 01:27:18;;;;;;;2.55;2.34;;;;;;;14.65;77.17;100063.23;430983;118;930605;-75
2022/09/15 01:28:42;;;;;;;3.16;2.17;;;;;;;14.63;77.26;100054.41;448389;118;922536;-77
2022/09/15 01:30:08;;;;;;;2.48;2.28;;;;;;;14.62;77.38;100052.74;450698;116;922598;-74
2022/09/15 01:31:31;;;;;;;4.19;2.43;;;;;;;14.61;77.38;100045.59;455972;116;922599;-76
2022/09/15 01:33:04;;;;;;;3.20;2.34;;;;;;;14.60;77.46;100043.96;457138;114;922996;-76
2022/09/15 01:34:14;;;;;;;2.32;2.13;;;;;;;14.58;77.54;100041.46;452933;116;923445;-78
2022/09/15 01:35:32;;;;;;;2.31;2.11;;;;;;;14.69;77.65;100055.31;477006;110;946966;-77
2022/09/15 01:36:39;;;;;;;2.72;2.46;;;;;;;14.57;77.69;100047.19;464177;114;922523;-78
2022/09/15 01:37:54;;;;;;;2.14;2.01;;;;;;;14.56;77.73;100051.84;456607;114;922562;-78
2022/09/15 01:39:01;;;;;;;2.59;2.39;;;;;;;14.56;77.76;100046.36;437651;121;922562;-79
2022/09/15 01:40:07;;;;;;;2.60;2.39;;;;;;;14.56;77.79;100048.27;453964;116;923001;-78
2022/09/15 01:41:20;;;;;;;2.13;1.99;;;;;;;14.56;77.83;100040.87;453999;116;923010;-77
2022/09/15 01:42:24;;;;;;;3.14;2.28;;;;;;;14.55;77.80;100041.95;453881;115;922996;-76
2022/09/15 01:43:29;;;;;;;2.36;2.26;;;;;;;14.56;77.83;100048.27;454098;116;922870;-76
2022/09/15 01:44:35;;;;;;;2.16;1.97;;;;;;;14.56;77.89;100051.84;454026;116;922632;-75
2022/09/15 01:45:42;;;;;;;2.34;2.24;;;;;;;14.55;78.00;100054.86;453994;116;922999;-76
2022/09/15 01:46:47;;;;;;;3.15;2.14;;;;;;;14.55;77.91;100052.92;453987;116;922602;-74
2022/09/15 01:47:54;;;;;;;2.51;2.31;;;;;;;14.55;77.96;100052.12;453938;115;922996;-74
2022/09/15 01:49:00;;;;;;;2.44;2.15;;;;;;;14.55;77.97;100052.12;454042;116;923110;-76
2022/09/15 01:50:13;;;;;;;2.36;2.24;;;;;;;14.55;78.00;100052.92;453991;116;923144;-76
2022/09/15 01:51:17;;;;;;;2.94;2.52;;;;;;;14.55;78.04;100052.92;454048;116;922869;-76
2022/09/15 01:52:22;;;;;;;2.09;1.94;;;;;;;14.55;78.06;100052.92;454165;114;922950;-75
2022/09/15 01:53:26;;;;;;;2.37;2.16;;;;;;;14.54;78.11;100054.03;454001;116;923014;-75
2022/09/15 01:54:33;;;;;;;2.69;2.47;;;;;;;14.55;78.18;100043.89;454120;116;922812;-75
2022/09/15 01:55:54;;;;;;;3.82;2.32;;;;;;;14.54;78.23;100050.45;454064;116;922537;-74
2022/09/15 01:56:58;;;;;;;2.57;2.38;;;;;;;14.54;78.26;100044.97;454049;116;923062;-75
2022/09/15 01:58:01;;;;;;;2.22;1.93;;;;;;;14.54;78.32;100045.80;454142;114;922522;-75
2022/09/15 01:59:04;;;;;;;2.90;2.62;;;;;;;14.54;78.44;100048.55;455254;116;922619;-75
2022/09/15 02:00:09;;;;;;;2.30;2.19;;;;;;;14.54;78.42;100042.23;455577;116;922881;-75
2022/09/15 02:01:26;;;;;;;2.55;2.35;;;;;;;14.53;78.54;100043.30;455673;116;923103;-76
2022/09/15 02:02:42;;;;;;;2.37;2.24;;;;;;;14.53;78.49;100041.39;455545;116;922603;-75
2022/09/15 02:03:55;;;;;;;2.96;2.12;;;;;;;14.53;78.54;100043.30;455309;116;922558;-76
2022/09/15 02:05:02;;;;;;;2.52;2.35;;;;;;;14.53;78.61;100051.53;455535;116;923055;-76
2022/09/15 02:06:09;;;;;;;2.09;1.92;;;;;;;14.53;78.65;100059.77;455557;116;922631;-76
2022/09/15 02:07:22;;;;;;;2.38;2.19;;;;;;;14.52;78.71;100058.94;455528;116;922519;-75
2022/09/15 02:08:32;;;;;;;2.58;2.16;;;;;;;14.53;78.77;100054.28;455187;116;923051;-75
2022/09/15 02:09:45;;;;;;;2.69;2.44;;;;;;;14.54;78.94;100042.23;455447;116;922554;-75
2022/09/15 02:11:01;;;;;;;2.42;2.23;;;;;;;14.55;78.93;100041.95;455542;116;923027;-76
2022/09/15 02:12:32;;;;;;;2.46;2.16;;;;;;;14.57;79.01;100039.80;455490;116;922529;-76
2022/09/15 02:13:47;;;;;;;2.53;2.09;;;;;;;14.59;79.06;100059.59;455602;116;922565;-77
2022/09/15 02:15:06;;;;;;;2.31;2.11;;;;;;;14.61;79.13;100071.12;455513;116;922509;-76
2022/09/15 02:16:12;;;;;;;2.42;2.25;;;;;;;14.63;79.14;100083.76;457055;116;922691;-76
2022/09/15 02:17:18;;;;;;;2.08;1.96;;;;;;;14.62;79.20;100080.19;457282;116;923073;-75
2022/09/15 02:18:31;;;;;;;3.97;2.07;;;;;;;14.64;79.25;100088.17;457254;116;922558;-76
2022/09/15 02:19:40;;;;;;;2.63;2.39;;;;;;;14.65;79.28;100085.19;457268;116;922472;-75
2022/09/15 02:20:53;;;;;;;2.72;2.51;;;;;;;14.67;79.36;100084.91;457276;116;922572;-74
2022/09/15 02:22:22;;;;;;;2.25;2.11;;;;;;;14.68;79.39;100081.08;457285;116;922527;-75
2022/09/15 02:23:27;;;;;;;2.41;2.21;;;;;;;14.69;79.41;100071.77;457217;115;923106;-75
2022/09/15 02:24:34;;;;;;;3.67;2.68;;;;;;;14.73;79.43;100056.45;456711;115;922883;-74
2022/09/15 02:25:42;;;;;;;2.44;2.25;;;;;;;14.74;79.53;100052.62;457205;115;922563;-76
2022/09/15 02:26:48;;;;;;;2.78;2.57;;;;;;;14.76;79.52;100056.80;456977;115;923069;-77
2022/09/15 02:27:54;;;;;;;2.69;2.34;;;;;;;14.78;79.54;100060.09;457263;116;922566;-77
2022/09/15 02:29:00;;;;;;;2.80;2.43;;;;;;;14.82;79.50;100050.28;457314;116;922808;-76
2022/09/15 02:30:07;;;;;;;2.54;2.38;;;;;;;14.84;79.55;100047.27;452881;116;922519;-76
2022/09/15 02:31:14;;;;;;;2.58;2.36;;;;;;;14.87;79.46;100052.26;452686;115;923014;-76
2022/09/15 02:32:20;;;;;;;2.59;2.25;;;;;;;14.89;79.46;100056.39;460127;115;922930;-77
2022/09/15 02:33:27;;;;;;;2.27;2.13;;;;;;;14.92;79.44;100063.30;454580;115;922581;-76
2022/09/15 02:34:33;;;;;;;2.66;2.46;;;;;;;14.93;79.41;100060.30;437671;120;922629;-75
2022/09/15 02:35:38;;;;;;;2.77;2.22;;;;;;;14.94;79.34;100056.45;454414;116;923048;-75
2022/09/15 02:36:41;;;;;;;4.23;2.16;;;;;;;14.96;79.28;100050.71;454599;116;922885;-75
2022/09/15 02:37:45;;;;;;;3.49;2.39;;;;;;;14.98;79.28;100059.53;454648;116;922663;-75
2022/09/15 02:38:52;;;;;;;3.38;2.56;;;;;;;14.98;79.25;100056.78;454639;116;922591;-76
2022/09/15 02:39:57;;;;;;;2.48;2.24;;;;;;;15.00;79.24;100052.68;454569;116;923065;-75
2022/09/15 02:41:01;;;;;;;2.19;2.06;;;;;;;15.01;79.24;100053.52;454537;116;922820;-75
2022/09/15 02:42:05;;;;;;;2.75;2.55;;;;;;;15.01;79.21;100053.52;454677;116;922492;-75
2022/09/15 02:43:11;;;;;;;3.21;2.81;;;;;;;15.03;79.17;100062.34;454649;116;930326;-75
2022/09/15 02:44:14;;;;;;;3.05;2.73;;;;;;;15.04;79.18;100064.00;454553;116;922587;-76
2022/09/15 02:45:18;;;;;;;2.58;2.38;;;;;;;15.05;79.20;100062.09;454660;116;923137;-76
2022/09/15 02:46:22;;;;;;;2.42;2.22;;;;;;;15.05;79.11;100065.63;454562;116;922762;-76
2022/09/15 02:47:30;;;;;;;2.87;2.35;;;;;;;15.05;79.07;100060.14;454506;116;930617;-75
2022/09/15 02:48:34;;;;;;;2.46;2.27;;;;;;;15.05;79.06;100062.89;454494;116;923012;-76
2022/09/15 02:49:37;;;;;;;2.53;2.18;;;;;;;15.05;79.00;100062.89;454570;116;922516;-76
2022/09/15 02:50:40;;;;;;;4.95;2.41;;;;;;;15.07;79.02;100068.13;454593;116;922565;-75
2022/09/15 02:51:43;;;;;;;3.02;2.36;;;;;;;15.07;78.98;100068.13;454695;116;923009;-75
2022/09/15 02:52:46;;;;;;;2.90;2.06;;;;;;;15.06;79.02;100067.30;454640;116;922473;-75
2022/09/15 02:53:49;;;;;;;2.27;2.06;;;;;;;15.07;79.07;100063.47;454663;116;923086;-75
2022/09/15 02:54:53;;;;;;;2.59;2.20;;;;;;;15.09;78.99;100063.22;454616;116;922565;-75
2022/09/15 02:55:56;;;;;;;2.72;2.52;;;;;;;15.09;79.02;100060.48;454699;116;922606;-78
2022/09/15 02:57:00;;;;;;;3.13;2.51;;;;;;;15.09;78.92;100061.31;454468;116;922832;-76
2022/09/15 02:58:03;;;;;;;2.65;2.27;;;;;;;15.09;78.92;100055.82;454645;116;922884;-76
2022/09/15 02:59:06;;;;;;;2.43;2.23;;;;;;;15.10;78.88;100057.48;457306;115;922443;-75
2022/09/15 03:00:14;;;;;;;2.41;2.27;;;;;;;15.10;78.80;100056.66;458214;115;922765;-75
2022/09/15 03:01:17;;;;;;;2.78;2.41;;;;;;;15.09;78.75;100057.73;458166;115;922558;-75
2022/09/15 03:02:20;;;;;;;3.52;2.11;;;;;;;15.07;78.72;100063.47;458312;115;922977;-75
2022/09/15 03:03:23;;;;;;;2.69;2.48;;;;;;;15.07;78.71;100052.48;458331;115;922554;-76
2022/09/15 03:04:26;;;;;;;4.89;2.26;;;;;;;15.07;78.77;100057.14;458307;115;922486;-76
2022/09/15 03:05:29;;;;;;;2.51;2.32;;;;;;;15.05;78.80;100051.10;458339;115;922585;-75
2022/09/15 03:06:35;;;;;;;2.44;2.23;;;;;;;15.06;78.84;100060.97;458224;115;922549;-77
2022/09/15 03:07:39;;;;;;;2.73;2.21;;;;;;;15.06;78.79;100052.73;458028;115;930284;-77
2022/09/15 03:08:49;;;;;;;2.68;2.48;;;;;;;15.05;78.85;100051.10;458222;115;922495;-76
2022/09/15 03:09:53;;;;;;;2.34;2.17;;;;;;;15.04;78.73;100058.51;457517;115;930341;-76
2022/09/15 03:10:59;;;;;;;2.56;2.36;;;;;;;15.03;78.75;100062.34;458338;115;922523;-76
2022/09/15 03:12:02;;;;;;;2.61;2.36;;;;;;;15.02;78.72;100064.25;458234;115;922624;-76
2022/09/15 03:13:05;;;;;;;2.31;2.14;;;;;;;15.01;78.74;100056.26;458389;115;923028;-76
2022/09/15 03:14:09;;;;;;;4.51;2.29;;;;;;;14.99;78.76;100061.20;458246;115;922688;-76
2022/09/15 03:15:14;;;;;;;2.33;2.08;;;;;;;14.98;78.72;100054.88;458273;115;923042;-75
2022/09/15 03:16:17;;;;;;;2.47;2.27;;;;;;;14.96;78.73;100059.78;456002;116;922647;-75
2022/09/15 03:17:20;;;;;;;3.79;2.41;;;;;;;14.95;78.74;100060.02;456245;116;922884;-76
2022/09/15 03:18:23;;;;;;;2.71;2.50;;;;;;;14.93;78.80;100063.05;456211;116;922784;-75
2022/09/15 03:19:26;;;;;;;3.01;2.36;;;;;;;14.93;78.76;100064.97;456214;116;922808;-75
2022/09/15 03:20:30;;;;;;;3.71;2.39;;;;;;;14.91;78.85;100072.61;456122;116;922758;-76
2022/09/15 03:21:34;;;;;;;2.61;2.27;;;;;;;14.90;78.90;100070.95;456201;116;930395;-76
2022/09/15 03:22:38;;;;;;;2.82;2.59;;;;;;;14.89;78.93;100069.28;456178;116;922496;-75
2022/09/15 03:23:41;;;;;;;2.76;2.56;;;;;;;14.88;78.91;100067.65;456228;116;922853;-75
2022/09/15 03:24:44;;;;;;;2.66;2.02;;;;;;;14.87;79.08;100072.30;456202;116;930301;-76
2022/09/15 03:25:47;;;;;;;2.21;2.06;;;;;;;14.87;79.08;100072.30;456168;116;922930;-74
2022/09/15 03:26:51;;;;;;;2.49;2.26;;;;;;;14.86;79.01;100064.31;456173;116;930226;-77
2022/09/15 03:27:54;;;;;;;2.38;2.06;;;;;;;14.86;79.15;100075.30;456238;116;922925;-76
2022/09/15 03:28:57;;;;;;;3.50;2.69;;;;;;;14.86;79.07;100069.80;455082;116;922571;-76
2022/09/15 03:30:00;;;;;;;2.49;2.29;;;;;;;14.85;79.20;100071.72;452368;116;922592;-76
2022/09/15 03:31:04;;;;;;;3.44;2.74;;;;;;;14.86;79.14;100067.06;453815;116;922591;-74
2022/09/15 03:32:08;;;;;;;2.85;2.49;;;;;;;14.84;79.13;100064.56;452035;117;922495;-76
2022/09/15 03:33:11;;;;;;;2.41;2.11;;;;;;;14.85;79.17;100066.23;452070;117;922440;-74
2022/09/15 03:34:14;;;;;;;2.26;2.13;;;;;;;14.86;79.25;100067.06;456230;115;923350;-75
2022/09/15 03:35:17;;;;;;;2.08;1.90;;;;;;;14.84;79.22;100059.08;458239;115;922459;-76
2022/09/15 03:36:22;;;;;;;2.16;2.03;;;;;;;14.85;79.22;100063.48;457252;115;923492;-75
2022/09/15 03:37:26;;;;;;;3.09;2.50;;;;;;;14.86;79.26;100061.57;457429;115;922805;-75
2022/09/15 03:38:29;;;;;;;3.02;2.39;;;;;;;14.86;79.29;100067.06;451103;117;923072;-76
2022/09/15 03:39:33;;;;;;;2.14;2.01;;;;;;;14.87;79.32;100074.22;451544;116;930536;-76
2022/09/15 03:40:36;;;;;;;2.87;2.50;;;;;;;14.87;79.43;100071.47;457392;115;923018;-76
2022/09/15 03:41:40;;;;;;;3.87;1.84;;;;;;;14.87;79.40;100072.30;457484;115;922993;-75
2022/09/15 03:42:43;;;;;;;2.50;2.31;;;;;;;14.89;79.56;100074.77;457476;115;922433;-75
2022/09/15 03:43:46;;;;;;;2.47;2.27;;;;;;;14.90;79.57;100063.55;457461;115;922412;-75
2022/09/15 03:44:49;;;;;;;2.84;2.38;;;;;;;14.92;79.57;100074.28;457468;115;923077;-75
2022/09/15 03:45:52;;;;;;;2.76;2.52;;;;;;;14.93;79.58;100076.78;457467;116;922496;-76
2022/09/15 03:46:57;;;;;;;2.87;2.53;;;;;;;14.95;79.56;100076.50;457355;116;922994;-76
2022/09/15 03:48:00;;;;;;;2.97;2.69;;;;;;;14.95;79.55;100082.82;457366;115;923019;-75
2022/09/15 03:49:03;;;;;;;3.49;2.42;;;;;;;14.97;79.55;100080.66;457428;115;922457;-78
2022/09/15 03:50:07;;;;;;;2.42;2.22;;;;;;;14.99;79.61;100077.67;457360;115;922716;-76
2022/09/15 03:51:10;;;;;;;2.72;2.07;;;;;;;15.01;79.71;100083.72;457345;116;923769;-76
2022/09/15 03:52:13;;;;;;;3.00;2.42;;;;;;;15.03;79.68;100076.89;457330;115;923098;-75
2022/09/15 03:53:17;;;;;;;2.76;2.31;;;;;;;15.06;79.70;100072.79;457386;115;930528;-75
2022/09/15 03:54:20;;;;;;;2.62;2.45;;;;;;;15.08;79.68;100081.61;457285;115;922548;-75
2022/09/15 03:55:23;;;;;;;2.66;2.27;;;;;;;15.11;79.66;100091.23;457271;115;922550;-76
2022/09/15 03:56:32;;;;;;;2.33;2.06;;;;;;;15.13;79.69;100087.16;457242;115;923135;-75
2022/09/15 03:57:35;;;;;;;2.63;2.43;;;;;;;15.14;79.61;100094.32;457095;115;922586;-77
2022/09/15 03:58:38;;;;;;;2.42;2.22;;;;;;;15.15;79.57;100085.00;457182;115;922750;-75
2022/09/15 03:59:41;;;;;;;2.33;2.12;;;;;;;15.17;79.51;100085.55;456960;116;922520;-75
2022/09/15 04:00:45;;;;;;;2.79;2.34;;;;;;;15.18;79.50;100076.23;456954;116;922886;-75
2022/09/15 04:01:49;;;;;;;2.34;2.18;;;;;;;15.19;79.52;100077.90;456837;116;923082;-75
2022/09/15 04:02:52;;;;;;;2.36;2.03;;;;;;;15.21;79.69;100081.23;456809;116;922499;-75
2022/09/15 04:03:56;;;;;;;2.64;2.44;;;;;;;15.23;79.61;100079.03;456960;116;923103;-75
2022/09/15 04:04:59;;;;;;;2.39;2.20;;;;;;;15.27;79.67;100085.66;456869;116;922537;-75
2022/09/15 04:06:03;;;;;;;3.03;2.73;;;;;;;15.30;79.67;100092.58;456918;116;923184;-75
2022/09/15 04:07:07;;;;;;;3.63;2.59;;;;;;;15.31;79.51;100088.75;456930;116;923055;-75
2022/09/15 04:08:12;;;;;;;3.06;2.67;;;;;;;15.33;79.49;100092.05;456761;116;922536;-75
2022/09/15 04:09:15;;;;;;;2.68;2.19;;;;;;;15.34;79.48;100093.70;456834;116;922973;-75
2022/09/15 04:10:18;;;;;;;2.74;2.54;;;;;;;15.35;79.45;100090.72;456936;116;922628;-75
2022/09/15 04:11:21;;;;;;;2.82;2.54;;;;;;;15.36;79.42;100092.38;456996;116;922579;-75
2022/09/15 04:12:25;;;;;;;2.85;2.65;;;;;;;15.38;79.40;100092.13;456910;116;922459;-75
2022/09/15 04:13:27;;;;;;;2.66;2.54;;;;;;;15.39;79.38;100086.36;457027;116;922830;-75
2022/09/15 04:14:31;;;;;;;2.76;2.54;;;;;;;15.40;79.38;100089.94;457022;116;922554;-75
2022/09/15 04:15:34;;;;;;;2.37;2.16;;;;;;;15.41;79.39;100083.36;454491;116;922486;-75
2022/09/15 04:16:37;;;;;;;3.61;2.62;;;;;;;15.42;79.35;100082.27;449618;117;922572;-75
2022/09/15 04:17:40;;;;;;;2.38;2.28;;;;;;;15.43;79.31;100079.28;449606;118;923058;-74
2022/09/15 04:18:43;;;;;;;2.96;2.30;;;;;;;15.45;79.36;100087.23;449666;118;922632;-75
2022/09/15 04:19:46;;;;;;;2.17;2.08;;;;;;;15.46;79.34;100086.16;449621;117;923008;-75
2022/09/15 04:20:49;;;;;;;2.83;2.40;;;;;;;15.47;79.34;100076.83;449652;118;922963;-74
2022/09/15 04:21:52;;;;;;;2.91;2.26;;;;;;;15.49;79.32;100082.08;449670;117;922703;-75
2022/09/15 04:22:55;;;;;;;2.63;2.43;;;;;;;15.49;79.33;100077.41;449666;117;923071;-75
2022/09/15 04:23:58;;;;;;;2.74;2.51;;;;;;;15.51;79.38;100072.47;449686;117;922938;-75
2022/09/15 04:25:01;;;;;;;2.22;2.12;;;;;;;15.53;79.26;100069.50;449622;117;922854;-76
2022/09/15 04:26:08;;;;;;;3.38;2.41;;;;;;;15.53;79.31;100075.83;449570;118;922569;-75
2022/09/15 04:27:11;;;;;;;2.64;2.45;;;;;;;15.56;79.30;100090.95;449244;118;922812;-75
2022/09/15 04:28:14;;;;;;;2.49;2.29;;;;;;;15.56;79.27;100097.28;449605;118;923128;-76
2022/09/15 04:29:18;;;;;;;3.80;2.51;;;;;;;15.57;79.25;100092.62;449553;118;922795;-75
2022/09/15 04:30:22;;;;;;;2.66;2.46;;;;;;;15.57;79.27;100090.70;453529;116;922537;-76
2022/09/15 04:31:25;;;;;;;3.92;2.68;;;;;;;15.58;79.31;100086.87;450807;116;922837;-75
2022/09/15 04:32:29;;;;;;;2.48;2.38;;;;;;;15.60;79.31;100078.38;448066;118;922492;-75
2022/09/15 04:33:33;;;;;;;3.20;2.47;;;;;;;15.61;79.24;100080.00;448127;118;922651;-76
2022/09/15 04:34:36;;;;;;;2.92;2.69;;;;;;;15.61;79.22;100082.75;457377;116;922971;-76
2022/09/15 04:35:41;;;;;;;2.47;2.27;;;;;;;15.61;79.35;100094.58;456982;115;922498;-76
2022/09/15 04:36:45;;;;;;;3.46;2.78;;;;;;;15.62;79.23;100090.75;456422;115;922540;-75
2022/09/15 04:37:48;;;;;;;2.59;2.30;;;;;;;15.63;79.37;100092.41;456429;115;922461;-75
2022/09/15 04:38:51;;;;;;;2.79;2.59;;;;;;;15.65;79.34;100092.16;456363;115;930269;-76
2022/09/15 04:39:55;;;;;;;2.74;2.42;;;;;;;15.66;79.20;100099.30;456412;115;922936;-73
2022/09/15 04:40:59;;;;;;;3.44;2.56;;;;;;;15.66;79.20;100088.30;456385;115;930266;-75
2022/09/15 04:42:04;;;;;;;3.08;2.32;;;;;;;15.67;79.20;100092.71;456514;115;923027;-75
2022/09/15 04:43:07;;;;;;;2.58;2.37;;;;;;;15.66;79.28;100089.13;456373;116;923030;-74
2022/09/15 04:44:10;;;;;;;2.29;2.19;;;;;;;15.67;79.16;100078.97;456538;115;922538;-75
2022/09/15 04:45:13;;;;;;;3.59;2.74;;;;;;;15.67;79.22;100078.97;456486;115;922472;-75
2022/09/15 04:46:18;;;;;;;3.01;2.56;;;;;;;15.68;79.26;100084.22;456376;115;922578;-76
2022/09/15 04:47:21;;;;;;;2.64;2.41;;;;;;;15.68;79.24;100097.95;456434;115;922808;-76
2022/09/15 04:48:24;;;;;;;3.09;2.71;;;;;;;15.68;79.13;100102.63;456492;115;922929;-75
2022/09/15 04:49:27;;;;;;;4.58;2.74;;;;;;;15.69;79.18;100102.38;456367;115;923187;-74
2022/09/15 04:50:32;;;;;;;2.13;2.01;;;;;;;15.69;79.08;100104.29;456336;116;930512;-74
2022/09/15 04:51:37;;;;;;;2.51;2.31;;;;;;;15.69;79.08;100096.05;456256;116;930526;-76
2022/09/15 04:52:40;;;;;;;2.74;2.47;;;;;;;15.69;79.09;100098.79;456466;115;922645;-77
2022/09/15 04:53:44;;;;;;;2.46;2.31;;;;;;;15.69;79.25;100096.05;456495;115;923001;-76
2022/09/15 04:54:47;;;;;;;2.54;2.37;;;;;;;15.69;79.21;100093.30;456368;115;922909;-76
2022/09/15 04:55:50;;;;;;;3.30;2.69;;;;;;;15.68;79.22;100092.45;456413;115;930289;-76
2022/09/15 04:56:53;;;;;;;2.83;2.61;;;;;;;15.68;79.24;100092.45;456470;115;922534;-75
2022/09/15 04:57:57;;;;;;;2.79;2.41;;;;;;;15.69;79.31;100085.88;456481;115;922504;-75
2022/09/15 04:59:00;;;;;;;2.90;2.69;;;;;;;15.70;79.36;100089.46;451697;115;922972;-75
2022/09/15 05:00:06;;;;;;;3.34;2.61;;;;;;;15.71;79.38;100091.13;448407;117;930879;-75
2022/09/15 05:01:12;;;;;;;3.06;2.78;;;;;;;15.73;79.39;100086.17;448517;117;922564;-75
2022/09/15 05:02:15;;;;;;;2.71;2.56;;;;;;;15.73;79.48;100087.01;448496;117;930557;-74
2022/09/15 05:03:18;;;;;;;3.49;2.88;;;;;;;15.76;79.55;100086.50;448765;117;923067;-75
2022/09/15 05:04:21;;;;;;;3.36;3.07;;;;;;;15.77;79.48;100073.56;448731;118;922539;-75